sensor_id;sensor_type;location;lat;lon;timestamp;P1;durP1;ratioP1;P2;durP2;ratioP2
15818;SDS011;8010;53.986;12.106;2023-07-29T00:00:46;9.87;;;4.87;;
15818;SDS011;8010;53.986;12.106;2023-07-29T00:03:12;11.47;;;4.80;;
15818;SDS011;8010;53.986;12.106;2023-07-29T00:05:37;7.97;;;4.37;;
15818;SDS011;8010;53.986;12.106;2023-07-29T00:08:03;5.80;;;4.53;;
15818;SDS011;8010;53.986;12.106;2023-07-29T00:10:31;6.70;;;5.03;;
15818;SDS011;8010;53.986;12.106;2023-07-29T00:12:57;6.73;;;4.37;;
15818;SDS011;8010;53.986;12.106;2023-07-29T00:15:22;5.10;;;3.93;;
15818;SDS011;8010;53.986;12.106;2023-07-29T00:17:48;8.20;;;4.33;;
15818;SDS011;8010;53.986;12.106;2023-07-29T00:20:14;6.97;;;4.37;;
15818;SDS011;8010;53.986;12.106;2023-07-29T00:22:40;6.33;;;4.20;;
15818;SDS011;8010;53.986;12.106;2023-07-29T00:25:06;7.20;;;4.23;;
15818;SDS011;8010;53.986;12.106;2023-07-29T00:27:32;8.50;;;4.50;;
15818;SDS011;8010;53.986;12.106;2023-07-29T00:29:57;6.70;;;4.23;;
15818;SDS011;8010;53.986;12.106;2023-07-29T00:32:23;7.00;;;4.50;;
15818;SDS011;8010;53.986;12.106;2023-07-29T00:34:48;6.57;;;4.83;;
15818;SDS011;8010;53.986;12.106;2023-07-29T00:37:14;5.37;;;4.50;;
15818;SDS011;8010;53.986;12.106;2023-07-29T00:39:39;8.53;;;4.30;;
15818;SDS011;8010;53.986;12.106;2023-07-29T00:42:05;6.10;;;4.77;;
15818;SDS011;8010;53.986;12.106;2023-07-29T00:44:31;7.37;;;5.50;;
15818;SDS011;8010;53.986;12.106;2023-07-29T00:46:57;10.67;;;6.57;;
15818;SDS011;8010;53.986;12.106;2023-07-29T00:49:23;11.03;;;7.13;;
15818;SDS011;8010;53.986;12.106;2023-07-29T00:51:49;10.37;;;7.37;;
15818;SDS011;8010;53.986;12.106;2023-07-29T00:54:15;10.93;;;6.70;;
15818;SDS011;8010;53.986;12.106;2023-07-29T00:56:41;12.67;;;6.60;;
15818;SDS011;8010;53.986;12.106;2023-07-29T00:59:06;9.80;;;5.83;;
15818;SDS011;8010;53.986;12.106;2023-07-29T01:01:32;9.80;;;6.27;;
15818;SDS011;8010;53.986;12.106;2023-07-29T01:03:58;9.40;;;5.60;;
15818;SDS011;8010;53.986;12.106;2023-07-29T01:09:25;6.57;;;5.17;;
15818;SDS011;8010;53.986;12.106;2023-07-29T01:12:08;8.63;;;5.20;;
15818;SDS011;8010;53.986;12.106;2023-07-29T01:17:36;6.40;;;4.53;;
15818;SDS011;8010;53.986;12.106;2023-07-29T01:20:15;7.03;;;4.73;;
15818;SDS011;8010;53.986;12.106;2023-07-29T01:22:42;5.50;;;4.53;;
15818;SDS011;8010;53.986;12.106;2023-07-29T01:25:08;6.73;;;4.33;;
15818;SDS011;8010;53.986;12.106;2023-07-29T01:27:33;6.63;;;4.50;;
15818;SDS011;8010;53.986;12.106;2023-07-29T01:29:59;7.40;;;4.70;;
15818;SDS011;8010;53.986;12.106;2023-07-29T01:32:40;6.67;;;4.50;;
15818;SDS011;8010;53.986;12.106;2023-07-29T01:37:34;7.33;;;4.20;;
15818;SDS011;8010;53.986;12.106;2023-07-29T01:40:02;6.90;;;5.00;;
15818;SDS011;8010;53.986;12.106;2023-07-29T01:42:30;6.17;;;4.80;;
15818;SDS011;8010;53.986;12.106;2023-07-29T01:44:56;8.90;;;4.80;;
15818;SDS011;8010;53.986;12.106;2023-07-29T01:47:22;5.97;;;5.10;;
15818;SDS011;8010;53.986;12.106;2023-07-29T01:49:47;6.23;;;5.00;;
15818;SDS011;8010;53.986;12.106;2023-07-29T01:52:13;7.50;;;5.13;;
15818;SDS011;8010;53.986;12.106;2023-07-29T01:54:38;6.43;;;5.20;;
15818;SDS011;8010;53.986;12.106;2023-07-29T01:57:05;7.83;;;5.10;;
15818;SDS011;8010;53.986;12.106;2023-07-29T01:59:31;7.37;;;5.20;;
15818;SDS011;8010;53.986;12.106;2023-07-29T02:01:56;8.27;;;5.20;;
15818;SDS011;8010;53.986;12.106;2023-07-29T02:04:22;9.00;;;5.03;;
15818;SDS011;8010;53.986;12.106;2023-07-29T02:06:47;9.50;;;5.67;;
15818;SDS011;8010;53.986;12.106;2023-07-29T02:09:13;7.07;;;5.53;;
15818;SDS011;8010;53.986;12.106;2023-07-29T02:11:38;7.10;;;5.87;;
15818;SDS011;8010;53.986;12.106;2023-07-29T02:14:04;8.13;;;5.37;;
15818;SDS011;8010;53.986;12.106;2023-07-29T02:16:29;7.63;;;5.13;;
15818;SDS011;8010;53.986;12.106;2023-07-29T02:18:55;9.10;;;5.60;;
15818;SDS011;8010;53.986;12.106;2023-07-29T02:21:21;6.60;;;5.20;;
15818;SDS011;8010;53.986;12.106;2023-07-29T02:23:46;10.40;;;6.07;;
15818;SDS011;8010;53.986;12.106;2023-07-29T02:26:12;8.13;;;5.60;;
15818;SDS011;8010;53.986;12.106;2023-07-29T02:28:37;10.00;;;6.43;;
15818;SDS011;8010;53.986;12.106;2023-07-29T02:31:09;7.97;;;6.00;;
15818;SDS011;8010;53.986;12.106;2023-07-29T02:33:42;9.27;;;6.10;;
15818;SDS011;8010;53.986;12.106;2023-07-29T02:36:08;10.50;;;6.70;;
15818;SDS011;8010;53.986;12.106;2023-07-29T02:38:34;7.80;;;5.67;;
15818;SDS011;8010;53.986;12.106;2023-07-29T02:40:59;9.13;;;6.07;;
15818;SDS011;8010;53.986;12.106;2023-07-29T02:43:25;9.87;;;5.50;;
15818;SDS011;8010;53.986;12.106;2023-07-29T02:45:50;10.00;;;6.47;;
15818;SDS011;8010;53.986;12.106;2023-07-29T02:48:16;7.47;;;5.40;;
15818;SDS011;8010;53.986;12.106;2023-07-29T02:50:41;10.27;;;6.00;;
15818;SDS011;8010;53.986;12.106;2023-07-29T02:53:07;7.90;;;5.20;;
15818;SDS011;8010;53.986;12.106;2023-07-29T02:55:32;7.50;;;5.53;;
15818;SDS011;8010;53.986;12.106;2023-07-29T02:57:58;7.87;;;5.63;;
15818;SDS011;8010;53.986;12.106;2023-07-29T03:00:23;8.03;;;5.10;;
15818;SDS011;8010;53.986;12.106;2023-07-29T03:02:49;8.47;;;5.07;;
15818;SDS011;8010;53.986;12.106;2023-07-29T03:05:15;7.50;;;5.47;;
15818;SDS011;8010;53.986;12.106;2023-07-29T03:07:40;7.23;;;4.57;;
15818;SDS011;8010;53.986;12.106;2023-07-29T03:10:06;5.53;;;4.67;;
15818;SDS011;8010;53.986;12.106;2023-07-29T03:12:32;4.70;;;4.20;;
15818;SDS011;8010;53.986;12.106;2023-07-29T03:14:57;8.87;;;4.80;;
15818;SDS011;8010;53.986;12.106;2023-07-29T03:17:24;7.47;;;4.93;;
15818;SDS011;8010;53.986;12.106;2023-07-29T03:19:50;6.50;;;5.03;;
15818;SDS011;8010;53.986;12.106;2023-07-29T03:22:15;5.57;;;4.17;;
15818;SDS011;8010;53.986;12.106;2023-07-29T03:24:41;6.47;;;4.83;;
15818;SDS011;8010;53.986;12.106;2023-07-29T03:27:07;6.07;;;4.00;;
15818;SDS011;8010;53.986;12.106;2023-07-29T03:29:34;6.57;;;4.50;;
15818;SDS011;8010;53.986;12.106;2023-07-29T03:32:00;5.50;;;4.90;;
15818;SDS011;8010;53.986;12.106;2023-07-29T03:34:26;5.60;;;4.40;;
15818;SDS011;8010;53.986;12.106;2023-07-29T03:36:51;4.70;;;4.30;;
15818;SDS011;8010;53.986;12.106;2023-07-29T03:39:17;6.77;;;3.97;;
15818;SDS011;8010;53.986;12.106;2023-07-29T03:41:42;7.20;;;4.00;;
15818;SDS011;8010;53.986;12.106;2023-07-29T03:44:08;4.07;;;3.60;;
15818;SDS011;8010;53.986;12.106;2023-07-29T03:46:33;5.57;;;4.07;;
15818;SDS011;8010;53.986;12.106;2023-07-29T03:48:59;5.20;;;4.40;;
15818;SDS011;8010;53.986;12.106;2023-07-29T03:51:24;5.10;;;3.90;;
15818;SDS011;8010;53.986;12.106;2023-07-29T03:53:50;5.00;;;4.20;;
15818;SDS011;8010;53.986;12.106;2023-07-29T03:56:15;4.40;;;4.00;;
15818;SDS011;8010;53.986;12.106;2023-07-29T03:58:41;4.17;;;3.40;;
15818;SDS011;8010;53.986;12.106;2023-07-29T04:01:08;4.40;;;4.00;;
15818;SDS011;8010;53.986;12.106;2023-07-29T04:03:34;4.07;;;3.63;;
15818;SDS011;8010;53.986;12.106;2023-07-29T04:05:59;4.67;;;3.40;;
15818;SDS011;8010;53.986;12.106;2023-07-29T04:08:25;4.37;;;3.67;;
15818;SDS011;8010;53.986;12.106;2023-07-29T04:10:51;4.57;;;4.10;;
15818;SDS011;8010;53.986;12.106;2023-07-29T04:13:16;4.80;;;3.80;;
15818;SDS011;8010;53.986;12.106;2023-07-29T04:15:42;3.90;;;3.43;;
15818;SDS011;8010;53.986;12.106;2023-07-29T04:18:07;4.77;;;4.27;;
15818;SDS011;8010;53.986;12.106;2023-07-29T04:20:33;5.33;;;4.13;;
15818;SDS011;8010;53.986;12.106;2023-07-29T04:22:58;6.30;;;4.33;;
15818;SDS011;8010;53.986;12.106;2023-07-29T04:25:24;4.87;;;4.03;;
15818;SDS011;8010;53.986;12.106;2023-07-29T04:27:49;5.07;;;3.90;;
15818;SDS011;8010;53.986;12.106;2023-07-29T04:30:15;6.77;;;4.20;;
15818;SDS011;8010;53.986;12.106;2023-07-29T04:32:41;4.30;;;3.83;;
15818;SDS011;8010;53.986;12.106;2023-07-29T04:35:07;5.97;;;4.60;;
15818;SDS011;8010;53.986;12.106;2023-07-29T04:37:33;8.00;;;4.67;;
15818;SDS011;8010;53.986;12.106;2023-07-29T04:39:59;4.23;;;3.83;;
15818;SDS011;8010;53.986;12.106;2023-07-29T04:42:24;6.63;;;4.53;;
15818;SDS011;8010;53.986;12.106;2023-07-29T04:44:50;5.83;;;4.30;;
15818;SDS011;8010;53.986;12.106;2023-07-29T04:47:15;4.40;;;4.00;;
15818;SDS011;8010;53.986;12.106;2023-07-29T04:49:41;6.10;;;4.47;;
15818;SDS011;8010;53.986;12.106;2023-07-29T04:52:06;4.83;;;4.20;;
15818;SDS011;8010;53.986;12.106;2023-07-29T04:54:32;5.30;;;4.80;;
15818;SDS011;8010;53.986;12.106;2023-07-29T04:56:58;6.27;;;4.70;;
15818;SDS011;8010;53.986;12.106;2023-07-29T04:59:23;5.13;;;4.63;;
15818;SDS011;8010;53.986;12.106;2023-07-29T05:01:49;5.10;;;4.60;;
15818;SDS011;8010;53.986;12.106;2023-07-29T05:04:14;4.80;;;4.40;;
15818;SDS011;8010;53.986;12.106;2023-07-29T05:06:40;4.93;;;4.40;;
15818;SDS011;8010;53.986;12.106;2023-07-29T05:09:12;6.57;;;4.90;;
15818;SDS011;8010;53.986;12.106;2023-07-29T05:11:43;5.27;;;4.13;;
15818;SDS011;8010;53.986;12.106;2023-07-29T05:14:10;5.53;;;5.00;;
15818;SDS011;8010;53.986;12.106;2023-07-29T05:16:36;5.40;;;4.90;;
15818;SDS011;8010;53.986;12.106;2023-07-29T05:19:02;5.60;;;5.10;;
15818;SDS011;8010;53.986;12.106;2023-07-29T05:21:27;5.40;;;4.70;;
15818;SDS011;8010;53.986;12.106;2023-07-29T05:23:53;5.83;;;4.63;;
15818;SDS011;8010;53.986;12.106;2023-07-29T05:26:18;8.37;;;5.40;;
15818;SDS011;8010;53.986;12.106;2023-07-29T05:28:44;5.60;;;4.93;;
15818;SDS011;8010;53.986;12.106;2023-07-29T05:31:09;5.27;;;4.77;;
15818;SDS011;8010;53.986;12.106;2023-07-29T05:33:35;5.10;;;4.60;;
15818;SDS011;8010;53.986;12.106;2023-07-29T05:36:01;5.57;;;4.77;;
15818;SDS011;8010;53.986;12.106;2023-07-29T05:38:26;6.50;;;4.73;;
15818;SDS011;8010;53.986;12.106;2023-07-29T05:40:52;5.73;;;4.67;;
15818;SDS011;8010;53.986;12.106;2023-07-29T05:43:17;5.23;;;4.47;;
15818;SDS011;8010;53.986;12.106;2023-07-29T05:45:43;6.77;;;4.70;;
15818;SDS011;8010;53.986;12.106;2023-07-29T05:48:08;6.50;;;4.47;;
15818;SDS011;8010;53.986;12.106;2023-07-29T05:50:34;4.97;;;4.57;;
15818;SDS011;8010;53.986;12.106;2023-07-29T05:52:59;4.10;;;3.70;;
15818;SDS011;8010;53.986;12.106;2023-07-29T05:55:25;5.40;;;4.30;;
15818;SDS011;8010;53.986;12.106;2023-07-29T05:57:50;6.00;;;4.43;;
15818;SDS011;8010;53.986;12.106;2023-07-29T06:00:16;4.57;;;4.10;;
15818;SDS011;8010;53.986;12.106;2023-07-29T06:02:42;5.33;;;4.47;;
15818;SDS011;8010;53.986;12.106;2023-07-29T06:05:07;4.53;;;4.13;;
15818;SDS011;8010;53.986;12.106;2023-07-29T06:07:33;6.53;;;4.80;;
15818;SDS011;8010;53.986;12.106;2023-07-29T06:09:59;5.70;;;4.17;;
15818;SDS011;8010;53.986;12.106;2023-07-29T06:12:25;5.60;;;4.10;;
15818;SDS011;8010;53.986;12.106;2023-07-29T06:14:50;5.03;;;4.20;;
15818;SDS011;8010;53.986;12.106;2023-07-29T06:17:16;4.20;;;3.80;;
15818;SDS011;8010;53.986;12.106;2023-07-29T06:19:41;4.63;;;3.73;;
15818;SDS011;8010;53.986;12.106;2023-07-29T06:22:07;6.03;;;3.87;;
15818;SDS011;8010;53.986;12.106;2023-07-29T06:24:32;4.10;;;3.70;;
15818;SDS011;8010;53.986;12.106;2023-07-29T06:26:58;4.10;;;3.50;;
15818;SDS011;8010;53.986;12.106;2023-07-29T06:29:23;4.23;;;3.13;;
15818;SDS011;8010;53.986;12.106;2023-07-29T06:31:49;6.20;;;3.57;;
15818;SDS011;8010;53.986;12.106;2023-07-29T06:34:16;3.50;;;3.20;;
15818;SDS011;8010;53.986;12.106;2023-07-29T06:36:42;3.40;;;3.10;;
15818;SDS011;8010;53.986;12.106;2023-07-29T06:39:08;4.60;;;3.33;;
15818;SDS011;8010;53.986;12.106;2023-07-29T06:41:33;3.57;;;3.00;;
15818;SDS011;8010;53.986;12.106;2023-07-29T06:43:59;3.37;;;3.00;;
15818;SDS011;8010;53.986;12.106;2023-07-29T06:46:24;3.50;;;3.20;;
15818;SDS011;8010;53.986;12.106;2023-07-29T06:48:51;3.33;;;2.93;;
15818;SDS011;8010;53.986;12.106;2023-07-29T06:51:16;3.73;;;2.60;;
15818;SDS011;8010;53.986;12.106;2023-07-29T06:53:42;3.60;;;3.23;;
15818;SDS011;8010;53.986;12.106;2023-07-29T06:56:07;4.37;;;3.27;;
15818;SDS011;8010;53.986;12.106;2023-07-29T06:58:33;4.00;;;3.20;;
15818;SDS011;8010;53.986;12.106;2023-07-29T07:00:59;4.00;;;3.20;;
15818;SDS011;8010;53.986;12.106;2023-07-29T07:03:24;3.60;;;3.30;;
15818;SDS011;8010;53.986;12.106;2023-07-29T07:05:50;3.43;;;3.10;;
15818;SDS011;8010;53.986;12.106;2023-07-29T07:08:16;4.40;;;4.00;;
15818;SDS011;8010;53.986;12.106;2023-07-29T07:10:41;4.03;;;3.20;;
15818;SDS011;8010;53.986;12.106;2023-07-29T07:13:07;4.67;;;4.17;;
15818;SDS011;8010;53.986;12.106;2023-07-29T07:15:32;6.10;;;3.83;;
15818;SDS011;8010;53.986;12.106;2023-07-29T07:17:58;4.23;;;3.60;;
15818;SDS011;8010;53.986;12.106;2023-07-29T07:20:23;8.03;;;5.10;;
15818;SDS011;8010;53.986;12.106;2023-07-29T07:22:49;5.40;;;4.90;;
15818;SDS011;8010;53.986;12.106;2023-07-29T07:25:14;5.27;;;4.63;;
15818;SDS011;8010;53.986;12.106;2023-07-29T07:27:40;6.10;;;4.57;;
15818;SDS011;8010;53.986;12.106;2023-07-29T07:30:06;5.07;;;4.40;;
15818;SDS011;8010;53.986;12.106;2023-07-29T07:32:32;7.10;;;5.60;;
15818;SDS011;8010;53.986;12.106;2023-07-29T07:34:57;5.10;;;4.60;;
15818;SDS011;8010;53.986;12.106;2023-07-29T07:37:23;5.33;;;4.70;;
15818;SDS011;8010;53.986;12.106;2023-07-29T07:39:48;6.57;;;4.47;;
15818;SDS011;8010;53.986;12.106;2023-07-29T07:42:14;5.57;;;5.00;;
15818;SDS011;8010;53.986;12.106;2023-07-29T07:44:39;6.07;;;4.97;;
15818;SDS011;8010;53.986;12.106;2023-07-29T07:47:05;5.20;;;4.70;;
15818;SDS011;8010;53.986;12.106;2023-07-29T07:49:30;4.87;;;4.37;;
15818;SDS011;8010;53.986;12.106;2023-07-29T07:51:56;5.23;;;4.73;;
15818;SDS011;8010;53.986;12.106;2023-07-29T07:54:21;5.27;;;4.77;;
15818;SDS011;8010;53.986;12.106;2023-07-29T07:56:47;6.47;;;5.60;;
15818;SDS011;8010;53.986;12.106;2023-07-29T07:59:12;6.43;;;5.63;;
15818;SDS011;8010;53.986;12.106;2023-07-29T08:01:38;7.13;;;5.53;;
15818;SDS011;8010;53.986;12.106;2023-07-29T08:04:04;5.80;;;5.13;;
15818;SDS011;8010;53.986;12.106;2023-07-29T08:06:30;6.57;;;4.83;;
15818;SDS011;8010;53.986;12.106;2023-07-29T08:08:57;6.87;;;5.10;;
15818;SDS011;8010;53.986;12.106;2023-07-29T08:11:22;5.97;;;5.33;;
15818;SDS011;8010;53.986;12.106;2023-07-29T08:13:48;5.37;;;4.87;;
15818;SDS011;8010;53.986;12.106;2023-07-29T08:16:13;6.00;;;5.40;;
15818;SDS011;8010;53.986;12.106;2023-07-29T08:18:39;6.17;;;5.33;;
15818;SDS011;8010;53.986;12.106;2023-07-29T08:21:05;6.10;;;5.20;;
15818;SDS011;8010;53.986;12.106;2023-07-29T08:23:31;6.57;;;5.50;;
15818;SDS011;8010;53.986;12.106;2023-07-29T08:25:58;6.10;;;5.50;;
15818;SDS011;8010;53.986;12.106;2023-07-29T08:28:33;5.37;;;4.63;;
15818;SDS011;8010;53.986;12.106;2023-07-29T08:31:01;6.00;;;5.17;;
15818;SDS011;8010;53.986;12.106;2023-07-29T08:33:27;5.47;;;4.73;;
15818;SDS011;8010;53.986;12.106;2023-07-29T08:35:53;5.53;;;4.80;;
15818;SDS011;8010;53.986;12.106;2023-07-29T08:38:19;5.60;;;5.00;;
15818;SDS011;8010;53.986;12.106;2023-07-29T08:40:53;6.27;;;5.67;;
15818;SDS011;8010;53.986;12.106;2023-07-29T08:43:25;5.93;;;5.33;;
15818;SDS011;8010;53.986;12.106;2023-07-29T08:45:57;6.17;;;5.53;;
15818;SDS011;8010;53.986;12.106;2023-07-29T08:48:32;9.47;;;5.60;;
15818;SDS011;8010;53.986;12.106;2023-07-29T08:51:11;5.70;;;5.13;;
15818;SDS011;8010;53.986;12.106;2023-07-29T08:53:37;6.80;;;5.83;;
15818;SDS011;8010;53.986;12.106;2023-07-29T08:56:04;5.83;;;5.30;;
15818;SDS011;8010;53.986;12.106;2023-07-29T08:58:30;6.97;;;5.83;;
15818;SDS011;8010;53.986;12.106;2023-07-29T09:00:56;6.03;;;5.43;;
15818;SDS011;8010;53.986;12.106;2023-07-29T09:03:22;6.13;;;4.97;;
15818;SDS011;8010;53.986;12.106;2023-07-29T09:05:47;6.73;;;5.80;;
15818;SDS011;8010;53.986;12.106;2023-07-29T09:08:14;6.10;;;5.50;;
15818;SDS011;8010;53.986;12.106;2023-07-29T09:10:39;6.00;;;5.40;;
15818;SDS011;8010;53.986;12.106;2023-07-29T09:13:05;5.83;;;5.23;;
15818;SDS011;8010;53.986;12.106;2023-07-29T09:15:33;5.67;;;5.07;;
15818;SDS011;8010;53.986;12.106;2023-07-29T09:18:08;6.07;;;5.47;;
15818;SDS011;8010;53.986;12.106;2023-07-29T09:20:35;5.60;;;4.77;;
15818;SDS011;8010;53.986;12.106;2023-07-29T09:23:01;6.80;;;5.13;;
15818;SDS011;8010;53.986;12.106;2023-07-29T09:25:27;5.57;;;5.03;;
15818;SDS011;8010;53.986;12.106;2023-07-29T09:28:07;6.40;;;4.97;;
15818;SDS011;8010;53.986;12.106;2023-07-29T09:30:33;6.30;;;5.70;;
15818;SDS011;8010;53.986;12.106;2023-07-29T09:32:59;6.10;;;5.50;;
15818;SDS011;8010;53.986;12.106;2023-07-29T09:35:29;5.97;;;5.37;;
15818;SDS011;8010;53.986;12.106;2023-07-29T09:37:57;8.27;;;5.10;;
15818;SDS011;8010;53.986;12.106;2023-07-29T09:40:22;6.07;;;5.47;;
15818;SDS011;8010;53.986;12.106;2023-07-29T09:42:48;6.30;;;5.33;;
15818;SDS011;8010;53.986;12.106;2023-07-29T09:45:22;7.50;;;5.43;;
15818;SDS011;8010;53.986;12.106;2023-07-29T09:47:49;5.37;;;4.87;;
15818;SDS011;8010;53.986;12.106;2023-07-29T09:50:15;6.87;;;5.37;;
15818;SDS011;8010;53.986;12.106;2023-07-29T09:52:41;5.73;;;5.03;;
15818;SDS011;8010;53.986;12.106;2023-07-29T09:55:09;6.13;;;5.43;;
15818;SDS011;8010;53.986;12.106;2023-07-29T09:57:37;5.93;;;4.70;;
15818;SDS011;8010;53.986;12.106;2023-07-29T10:00:04;5.63;;;5.10;;
15818;SDS011;8010;53.986;12.106;2023-07-29T10:02:36;7.03;;;5.27;;
15818;SDS011;8010;53.986;12.106;2023-07-29T10:05:06;5.30;;;4.80;;
15818;SDS011;8010;53.986;12.106;2023-07-29T10:07:33;5.63;;;5.10;;
15818;SDS011;8010;53.986;12.106;2023-07-29T10:10:02;5.70;;;4.90;;
15818;SDS011;8010;53.986;12.106;2023-07-29T10:12:29;6.37;;;4.93;;
15818;SDS011;8010;53.986;12.106;2023-07-29T10:14:58;5.13;;;4.63;;
15818;SDS011;8010;53.986;12.106;2023-07-29T10:17:34;6.87;;;4.70;;
15818;SDS011;8010;53.986;12.106;2023-07-29T10:20:01;6.23;;;4.60;;
15818;SDS011;8010;53.986;12.106;2023-07-29T10:22:32;4.90;;;4.50;;
15818;SDS011;8010;53.986;12.106;2023-07-29T10:25:04;5.03;;;4.63;;
15818;SDS011;8010;53.986;12.106;2023-07-29T10:27:43;4.60;;;4.20;;
15818;SDS011;8010;53.986;12.106;2023-07-29T10:30:14;5.43;;;4.00;;
15818;SDS011;8010;53.986;12.106;2023-07-29T10:32:41;6.13;;;3.90;;
15818;SDS011;8010;53.986;12.106;2023-07-29T10:35:13;4.80;;;4.30;;
15818;SDS011;8010;53.986;12.106;2023-07-29T10:37:42;4.00;;;3.57;;
15818;SDS011;8010;53.986;12.106;2023-07-29T10:40:09;5.73;;;3.67;;
15818;SDS011;8010;53.986;12.106;2023-07-29T10:42:36;5.83;;;3.77;;
15818;SDS011;8010;53.986;12.106;2023-07-29T10:50:36;4.50;;;3.70;;
15818;SDS011;8010;53.986;12.106;2023-07-29T10:53:02;4.10;;;3.70;;
15818;SDS011;8010;53.986;12.106;2023-07-29T10:55:35;4.13;;;3.73;;
15818;SDS011;8010;53.986;12.106;2023-07-29T10:58:08;3.63;;;3.33;;
15818;SDS011;8010;53.986;12.106;2023-07-29T11:00:34;6.37;;;3.63;;
15818;SDS011;8010;53.986;12.106;2023-07-29T11:03:00;4.73;;;3.70;;
15818;SDS011;8010;53.986;12.106;2023-07-29T11:10:45;3.87;;;3.57;;
15818;SDS011;8010;53.986;12.106;2023-07-29T11:13:25;6.63;;;3.57;;
15818;SDS011;8010;53.986;12.106;2023-07-29T11:15:53;3.53;;;3.23;;
15818;SDS011;8010;53.986;12.106;2023-07-29T11:18:19;4.10;;;3.70;;
15818;SDS011;8010;53.986;12.106;2023-07-29T11:20:45;4.20;;;3.40;;
15818;SDS011;8010;53.986;12.106;2023-07-29T11:23:12;3.87;;;3.57;;
15818;SDS011;8010;53.986;12.106;2023-07-29T11:25:38;4.47;;;3.43;;
15818;SDS011;8010;53.986;12.106;2023-07-29T11:28:04;6.83;;;3.93;;
15818;SDS011;8010;53.986;12.106;2023-07-29T11:30:30;3.97;;;3.57;;
15818;SDS011;8010;53.986;12.106;2023-07-29T11:32:56;4.37;;;3.20;;
15818;SDS011;8010;53.986;12.106;2023-07-29T11:35:22;3.57;;;3.27;;
15818;SDS011;8010;53.986;12.106;2023-07-29T11:37:49;3.17;;;2.90;;
15818;SDS011;8010;53.986;12.106;2023-07-29T11:40:16;3.23;;;2.93;;
15818;SDS011;8010;53.986;12.106;2023-07-29T11:42:42;2.70;;;2.50;;
15818;SDS011;8010;53.986;12.106;2023-07-29T11:45:09;3.43;;;3.00;;
15818;SDS011;8010;53.986;12.106;2023-07-29T11:47:36;3.10;;;2.80;;
15818;SDS011;8010;53.986;12.106;2023-07-29T11:50:05;3.03;;;2.73;;
15818;SDS011;8010;53.986;12.106;2023-07-29T11:52:36;2.67;;;2.47;;
15818;SDS011;8010;53.986;12.106;2023-07-29T11:55:04;4.47;;;2.77;;
15818;SDS011;8010;53.986;12.106;2023-07-29T11:57:30;3.57;;;2.73;;
15818;SDS011;8010;53.986;12.106;2023-07-29T11:59:59;2.73;;;2.13;;
15818;SDS011;8010;53.986;12.106;2023-07-29T12:02:31;3.27;;;2.23;;
15818;SDS011;8010;53.986;12.106;2023-07-29T12:04:57;2.37;;;2.17;;
15818;SDS011;8010;53.986;12.106;2023-07-29T12:07:23;3.00;;;2.70;;
15818;SDS011;8010;53.986;12.106;2023-07-29T12:09:49;4.30;;;2.77;;
15818;SDS011;8010;53.986;12.106;2023-07-29T12:12:16;3.10;;;2.40;;
15818;SDS011;8010;53.986;12.106;2023-07-29T12:14:45;4.93;;;1.97;;
15818;SDS011;8010;53.986;12.106;2023-07-29T12:17:13;3.80;;;2.10;;
15818;SDS011;8010;53.986;12.106;2023-07-29T12:19:41;3.90;;;1.90;;
15818;SDS011;8010;53.986;12.106;2023-07-29T12:22:07;5.40;;;1.90;;
15818;SDS011;8010;53.986;12.106;2023-07-29T12:24:35;2.73;;;1.70;;
15818;SDS011;8010;53.986;12.106;2023-07-29T12:27:02;4.57;;;1.80;;
15818;SDS011;8010;53.986;12.106;2023-07-29T12:29:28;2.93;;;1.73;;
15818;SDS011;8010;53.986;12.106;2023-07-29T12:32:03;3.20;;;1.73;;
15818;SDS011;8010;53.986;12.106;2023-07-29T12:34:30;2.83;;;1.60;;
15818;SDS011;8010;53.986;12.106;2023-07-29T12:36:57;2.93;;;1.87;;
15818;SDS011;8010;53.986;12.106;2023-07-29T12:39:27;3.27;;;1.43;;
15818;SDS011;8010;53.986;12.106;2023-07-29T12:41:55;1.53;;;1.33;;
15818;SDS011;8010;53.986;12.106;2023-07-29T12:44:23;1.60;;;1.00;;
15818;SDS011;8010;53.986;12.106;2023-07-29T12:46:50;2.40;;;1.00;;
15818;SDS011;8010;53.986;12.106;2023-07-29T12:49:16;2.27;;;1.20;;
15818;SDS011;8010;53.986;12.106;2023-07-29T12:51:41;1.53;;;0.93;;
15818;SDS011;8010;53.986;12.106;2023-07-29T12:54:08;2.30;;;1.20;;
15818;SDS011;8010;53.986;12.106;2023-07-29T12:56:33;3.43;;;1.30;;
15818;SDS011;8010;53.986;12.106;2023-07-29T12:58:59;1.53;;;1.20;;
15818;SDS011;8010;53.986;12.106;2023-07-29T13:01:26;4.50;;;1.30;;
15818;SDS011;8010;53.986;12.106;2023-07-29T13:03:53;4.37;;;1.37;;
15818;SDS011;8010;53.986;12.106;2023-07-29T13:06:19;1.93;;;1.30;;
15818;SDS011;8010;53.986;12.106;2023-07-29T13:08:45;2.27;;;1.30;;
15818;SDS011;8010;53.986;12.106;2023-07-29T13:11:11;2.33;;;1.40;;
15818;SDS011;8010;53.986;12.106;2023-07-29T13:13:36;2.40;;;1.67;;
15818;SDS011;8010;53.986;12.106;2023-07-29T13:16:02;4.07;;;2.13;;
15818;SDS011;8010;53.986;12.106;2023-07-29T13:18:28;2.97;;;2.40;;
15818;SDS011;8010;53.986;12.106;2023-07-29T13:20:53;2.43;;;2.10;;
15818;SDS011;8010;53.986;12.106;2023-07-29T13:23:19;4.57;;;2.43;;
15818;SDS011;8010;53.986;12.106;2023-07-29T13:25:46;4.07;;;2.57;;
15818;SDS011;8010;53.986;12.106;2023-07-29T13:28:12;3.60;;;3.03;;
15818;SDS011;8010;53.986;12.106;2023-07-29T13:30:40;4.67;;;3.23;;
15818;SDS011;8010;53.986;12.106;2023-07-29T13:33:06;3.97;;;3.40;;
15818;SDS011;8010;53.986;12.106;2023-07-29T13:35:32;4.30;;;3.27;;
15818;SDS011;8010;53.986;12.106;2023-07-29T13:37:58;6.03;;;3.50;;
15818;SDS011;8010;53.986;12.106;2023-07-29T13:40:24;4.30;;;3.30;;
15818;SDS011;8010;53.986;12.106;2023-07-29T13:42:49;3.57;;;3.10;;
15818;SDS011;8010;53.986;12.106;2023-07-29T13:45:15;3.80;;;3.17;;
15818;SDS011;8010;53.986;12.106;2023-07-29T13:47:40;3.90;;;3.10;;
15818;SDS011;8010;53.986;12.106;2023-07-29T13:50:06;3.50;;;2.80;;
15818;SDS011;8010;53.986;12.106;2023-07-29T13:52:35;3.70;;;2.77;;
15818;SDS011;8010;53.986;12.106;2023-07-29T13:55:02;4.20;;;3.07;;
15818;SDS011;8010;53.986;12.106;2023-07-29T13:57:28;3.20;;;2.90;;
15818;SDS011;8010;53.986;12.106;2023-07-29T13:59:53;3.40;;;3.10;;
15818;SDS011;8010;53.986;12.106;2023-07-29T14:02:19;3.17;;;2.87;;
15818;SDS011;8010;53.986;12.106;2023-07-29T14:04:45;3.27;;;2.93;;
15818;SDS011;8010;53.986;12.106;2023-07-29T14:07:10;3.50;;;2.70;;
15818;SDS011;8010;53.986;12.106;2023-07-29T14:09:36;3.73;;;2.90;;
15818;SDS011;8010;53.986;12.106;2023-07-29T14:12:03;3.60;;;3.30;;
15818;SDS011;8010;53.986;12.106;2023-07-29T14:14:29;6.93;;;3.20;;
15818;SDS011;8010;53.986;12.106;2023-07-29T14:16:54;3.07;;;2.77;;
15818;SDS011;8010;53.986;12.106;2023-07-29T14:19:20;3.17;;;2.77;;
15818;SDS011;8010;53.986;12.106;2023-07-29T14:21:45;2.67;;;2.27;;
15818;SDS011;8010;53.986;12.106;2023-07-29T14:24:11;3.20;;;2.70;;
15818;SDS011;8010;53.986;12.106;2023-07-29T14:26:36;3.00;;;2.70;;
15818;SDS011;8010;53.986;12.106;2023-07-29T14:29:02;3.20;;;2.90;;
15818;SDS011;8010;53.986;12.106;2023-07-29T14:31:28;2.83;;;2.53;;
15818;SDS011;8010;53.986;12.106;2023-07-29T14:33:53;3.17;;;2.37;;
15818;SDS011;8010;53.986;12.106;2023-07-29T14:36:19;2.87;;;2.57;;
15818;SDS011;8010;53.986;12.106;2023-07-29T14:38:44;7.00;;;3.23;;
15818;SDS011;8010;53.986;12.106;2023-07-29T14:41:10;2.70;;;2.50;;
15818;SDS011;8010;53.986;12.106;2023-07-29T14:43:35;4.30;;;2.60;;
15818;SDS011;8010;53.986;12.106;2023-07-29T14:46:01;2.80;;;2.40;;
15818;SDS011;8010;53.986;12.106;2023-07-29T14:48:27;2.80;;;2.60;;
15818;SDS011;8010;53.986;12.106;2023-07-29T14:50:52;2.63;;;2.43;;
15818;SDS011;8010;53.986;12.106;2023-07-29T14:53:18;2.83;;;2.57;;
15818;SDS011;8010;53.986;12.106;2023-07-29T14:55:44;3.10;;;2.80;;
15818;SDS011;8010;53.986;12.106;2023-07-29T14:58:09;3.63;;;2.80;;
15818;SDS011;8010;53.986;12.106;2023-07-29T15:00:35;2.63;;;2.40;;
15818;SDS011;8010;53.986;12.106;2023-07-29T15:03:00;2.63;;;2.43;;